Time;durP1;ratioP1;P1;durP2;ratioP2;P2;SDS_P1;SDS_P2;PMS_P1;PMS_P2;Temp;Humidity;BMP_temperature;BMP_pressure;BME280_temperature;BME280_humidity;BME280_pressure;Samples;Min_cycle;Max_cycle;Signal;HPM_P1;HPM_P2
2022/01/07 00:01:33;;;;;;;7.20;5.73;;;;;;;;;;5035369;28;20202;-89
2022/01/07 00:04:00;;;;;;;8.50;6.00;;;;;;;;;;5036005;28;20209;-88
2022/01/07 00:06:28;;;;;;;10.13;6.97;;;;;;;;;;5035727;28;20207;-88
2022/01/07 00:08:55;;;;;;;7.00;6.30;;;;;;;;;;5035506;28;20628;-88
2022/01/07 00:11:23;;;;;;;8.53;6.17;;;;;;;;;;5035427;28;20222;-88
2022/01/07 00:13:50;;;;;;;8.33;7.17;;;;;;;;;;5035068;28;20203;-89
2022/01/07 00:16:17;;;;;;;9.30;7.33;;;;;;;;;;5035443;28;20195;-88
2022/01/07 00:18:46;;;;;;;12.40;7.63;;;;;;;;;;5035394;28;20234;-89
2022/01/07 00:21:14;;;;;;;8.73;6.67;;;;;;;;;;5035624;28;20238;-89
2022/01/07 00:23:41;;;;;;;11.17;7.27;;;;;;;;;;5036741;28;20641;-88
2022/01/07 00:26:09;;;;;;;8.50;6.57;;;;;;;;;;5036174;28;20646;-87
2022/01/07 00:28:36;;;;;;;8.60;6.63;;;;;;;;;;5035593;28;20205;-89
2022/01/07 00:31:03;;;;;;;9.23;7.37;;;;;;;;;;5036163;28;20316;-88
2022/01/07 00:33:30;;;;;;;9.23;6.80;;;;;;;;;;5036334;28;20281;-89
2022/01/07 00:36:00;;;;;;;8.07;6.60;;;;;;;;;;5035919;28;20667;-88
2022/01/07 00:38:27;;;;;;;9.27;6.77;;;;;;;;;;5035754;28;20201;-88
2022/01/07 00:40:55;;;;;;;11.63;7.40;;;;;;;;;;5035912;28;20195;-89
2022/01/07 00:43:22;;;;;;;10.47;7.20;;;;;;;;;;5035906;28;20233;-88
2022/01/07 00:45:50;;;;;;;7.37;6.23;;;;;;;;;;5036159;28;20222;-89
2022/01/07 00:48:17;;;;;;;7.20;5.97;;;;;;;;;;5036046;28;20272;-89
2022/01/07 00:50:44;;;;;;;7.97;6.40;;;;;;;;;;5035379;28;20226;-88
2022/01/07 00:53:14;;;;;;;10.10;7.40;;;;;;;;;;5034527;28;20213;-89
2022/01/07 00:55:41;;;;;;;7.30;6.20;;;;;;;;;;5035634;28;20207;-88
2022/01/07 00:58:09;;;;;;;7.67;6.30;;;;;;;;;;5034734;28;20261;-88
2022/01/07 01:00:37;;;;;;;6.57;5.30;;;;;;;;;;5034271;28;20736;-87
2022/01/07 01:03:04;;;;;;;7.60;6.70;;;;;;;;;;5034077;28;20225;-88
2022/01/07 01:05:32;;;;;;;10.50;6.63;;;;;;;;;;5034330;28;20285;-89
2022/01/07 01:08:00;;;;;;;6.90;6.20;;;;;;;;;;5034572;28;20207;-88
2022/01/07 01:10:29;;;;;;;7.00;6.23;;;;;;;;;;5034774;28;20292;-89
2022/01/07 01:12:57;;;;;;;7.73;5.23;;;;;;;;;;5035840;28;20195;-89
2022/01/07 01:15:26;;;;;;;6.67;5.67;;;;;;;;;;5034601;28;20277;-88
2022/01/07 01:17:55;;;;;;;7.80;6.57;;;;;;;;;;5034353;28;20238;-88
2022/01/07 01:20:23;;;;;;;8.57;5.47;;;;;;;;;;5034262;28;20289;-88
2022/01/07 01:22:50;;;;;;;5.60;5.10;;;;;;;;;;5033903;28;20718;-88
2022/01/07 01:25:18;;;;;;;5.87;5.23;;;;;;;;;;5034314;28;20194;-88
2022/01/07 01:27:47;;;;;;;6.80;5.20;;;;;;;;;;5033736;28;20209;-88
2022/01/07 01:30:17;;;;;;;6.13;5.53;;;;;;;;;;5034050;28;20661;-89
2022/01/07 01:32:45;;;;;;;6.00;4.80;;;;;;;;;;5033537;28;20233;-89
2022/01/07 01:35:12;;;;;;;6.50;5.80;;;;;;;;;;5034119;28;20666;-88
2022/01/07 01:37:40;;;;;;;6.73;5.53;;;;;;;;;;5034646;28;20207;-88
2022/01/07 01:40:09;;;;;;;7.17;5.27;;;;;;;;;;5033630;28;20222;-88
2022/01/07 01:42:37;;;;;;;6.07;5.00;;;;;;;;;;5034817;28;20195;-88
2022/01/07 01:45:07;;;;;;;6.97;4.87;;;;;;;;;;5033983;28;20202;-89
2022/01/07 01:47:34;;;;;;;7.93;5.17;;;;;;;;;;5034118;28;20260;-88
2022/01/07 01:50:01;;;;;;;6.77;4.93;;;;;;;;;;5033911;28;20310;-88
2022/01/07 01:52:29;;;;;;;6.00;5.07;;;;;;;;;;5034496;28;20225;-88
2022/01/07 01:54:56;;;;;;;7.10;5.80;;;;;;;;;;5034103;28;20576;-88
2022/01/07 01:57:24;;;;;;;6.57;5.77;;;;;;;;;;5033642;28;20226;-89
2022/01/07 01:59:51;;;;;;;6.70;5.30;;;;;;;;;;5033536;28;20612;-88
2022/01/07 02:02:20;;;;;;;6.77;5.83;;;;;;;;;;5033717;28;20198;-87
2022/01/07 02:04:47;;;;;;;6.00;5.10;;;;;;;;;;5033694;28;20257;-89
2022/01/07 02:07:15;;;;;;;6.47;5.20;;;;;;;;;;5034067;28;20198;-89
2022/01/07 02:09:42;;;;;;;6.00;5.40;;;;;;;;;;5033951;28;20199;-88
2022/01/07 02:12:10;;;;;;;5.50;4.87;;;;;;;;;;5033747;28;20287;-87
2022/01/07 02:14:38;;;;;;;7.10;5.47;;;;;;;;;;5033114;28;20198;-88
2022/01/07 02:17:07;;;;;;;8.43;5.30;;;;;;;;;;5032409;28;20236;-88
2022/01/07 02:19:36;;;;;;;5.77;5.17;;;;;;;;;;5033330;28;20237;-89
2022/01/07 02:22:04;;;;;;;7.53;5.50;;;;;;;;;;5033961;28;20203;-89
2022/01/07 02:24:31;;;;;;;6.40;5.67;;;;;;;;;;5033489;28;20659;-88
2022/01/07 02:27:00;;;;;;;6.53;5.70;;;;;;;;;;5033481;28;20750;-88
2022/01/07 02:29:27;;;;;;;8.60;6.33;;;;;;;;;;5033723;28;20222;-88
2022/01/07 02:31:54;;;;;;;8.50;5.00;;;;;;;;;;5033066;28;20254;-88
2022/01/07 02:34:22;;;;;;;7.00;5.33;;;;;;;;;;5033903;28;20210;-89
2022/01/07 02:36:51;;;;;;;6.13;5.33;;;;;;;;;;5033876;28;20202;-88
2022/01/07 02:39:18;;;;;;;6.47;5.03;;;;;;;;;;5033119;28;20570;-88
2022/01/07 02:41:45;;;;;;;5.10;4.60;;;;;;;;;;5033142;28;20203;-88
2022/01/07 02:44:13;;;;;;;5.67;5.07;;;;;;;;;;5032836;28;20278;-88
2022/01/07 02:46:41;;;;;;;5.30;4.80;;;;;;;;;;5032692;28;20277;-89
2022/01/07 02:49:10;;;;;;;6.10;5.50;;;;;;;;;;5033306;28;20277;-89
2022/01/07 02:51:37;;;;;;;33.87;26.47;;;;;;;;;;5033995;28;20264;-88
2022/01/07 02:54:07;;;;;;;8.50;7.20;;;;;;;;;;5037202;28;20190;-88
2022/01/07 02:56:35;;;;;;;6.60;5.00;;;;;;;;;;5037418;28;20202;-88
2022/01/07 02:59:02;;;;;;;6.90;5.03;;;;;;;;;;5036662;28;20218;-88
2022/01/07 03:01:30;;;;;;;5.87;4.93;;;;;;;;;;5036634;28;20203;-89
2022/01/07 03:03:57;;;;;;;5.53;4.93;;;;;;;;;;5037185;28;20612;-88
2022/01/07 03:06:24;;;;;;;5.50;5.00;;;;;;;;;;5037254;28;20576;-89
2022/01/07 03:08:52;;;;;;;5.47;4.80;;;;;;;;;;5037185;28;20268;-89
2022/01/07 03:11:23;;;;;;;4.93;4.30;;;;;;;;;;5036351;28;20218;-89
2022/01/07 03:13:50;;;;;;;7.77;5.33;;;;;;;;;;5035941;28;20245;-88
2022/01/07 03:16:18;;;;;;;4.83;4.23;;;;;;;;;;5036465;28;20229;-89
2022/01/07 03:18:45;;;;;;;6.17;4.13;;;;;;;;;;5036079;28;20234;-88
2022/01/07 03:21:14;;;;;;;4.73;4.07;;;;;;;;;;5036143;28;20199;-88
2022/01/07 03:23:42;;;;;;;6.80;4.53;;;;;;;;;;5036000;28;20671;-89
2022/01/07 03:26:09;;;;;;;4.30;3.90;;;;;;;;;;5036065;28;20245;-89
2022/01/07 03:28:39;;;;;;;5.30;4.13;;;;;;;;;;5036023;28;20196;-89
2022/01/07 03:31:07;;;;;;;5.60;4.40;;;;;;;;;;5035853;28;20599;-89
2022/01/07 03:33:34;;;;;;;6.53;4.17;;;;;;;;;;5035640;28;20198;-88
2022/01/07 03:36:02;;;;;;;4.30;3.90;;;;;;;;;;5036203;28;20587;-89
2022/01/07 03:38:29;;;;;;;4.17;3.73;;;;;;;;;;5036123;28;20203;-90
2022/01/07 03:40:57;;;;;;;4.60;3.63;;;;;;;;;;5036093;28;20268;-90
2022/01/07 03:43:24;;;;;;;5.20;4.67;;;;;;;;;;5036144;28;20281;-90
2022/01/07 03:45:53;;;;;;;3.93;3.60;;;;;;;;;;5036171;28;20285;-90
2022/01/07 03:48:20;;;;;;;6.63;3.70;;;;;;;;;;5036423;28;20199;-90
2022/01/07 03:50:48;;;;;;;4.87;3.67;;;;;;;;;;5035674;28;20222;-90
2022/01/07 03:53:15;;;;;;;5.20;3.43;;;;;;;;;;5035591;28;20202;-90
2022/01/07 03:55:43;;;;;;;5.27;3.57;;;;;;;;;;5035995;28;20198;-90
2022/01/07 03:58:10;;;;;;;3.17;2.77;;;;;;;;;;5035860;28;20205;-90
2022/01/07 04:00:40;;;;;;;4.07;3.67;;;;;;;;;;5035819;28;20579;-90
2022/01/07 04:03:12;;;;;;;4.50;4.00;;;;;;;;;;5034900;28;20195;-90
2022/01/07 04:05:39;;;;;;;3.97;3.27;;;;;;;;;;5036433;28;20242;-89
2022/01/07 04:08:07;;;;;;;4.80;4.03;;;;;;;;;;5036690;28;20234;-89
2022/01/07 04:10:35;;;;;;;4.50;3.97;;;;;;;;;;5034030;28;20276;-89
2022/01/07 04:13:02;;;;;;;3.50;3.20;;;;;;;;;;5035414;28;20278;-90
2022/01/07 04:15:30;;;;;;;4.27;3.10;;;;;;;;;;5035228;28;20301;-88
2022/01/07 04:17:57;;;;;;;4.00;3.70;;;;;;;;;;5035862;28;20223;-90
2022/01/07 04:20:28;;;;;;;3.87;3.30;;;;;;;;;;5035938;28;20230;-90
2022/01/07 04:22:55;;;;;;;3.63;3.00;;;;;;;;;;5035519;28;20181;-90
2022/01/07 04:25:24;;;;;;;4.53;3.30;;;;;;;;;;5035439;28;20571;-86
2022/01/07 04:27:52;;;;;;;6.57;3.83;;;;;;;;;;5035574;28;20234;-88
2022/01/07 04:30:21;;;;;;;3.60;3.30;;;;;;;;;;5035219;28;20305;-89
2022/01/07 04:32:48;;;;;;;2.87;2.57;;;;;;;;;;5035589;28;20205;-89
2022/01/07 04:35:17;;;;;;;4.57;2.97;;;;;;;;;;5035583;28;20285;-88
2022/01/07 04:37:46;;;;;;;3.57;2.73;;;;;;;;;;5035113;28;20206;-89
2022/01/07 04:40:15;;;;;;;2.93;2.60;;;;;;;;;;5034451;28;20239;-89
2022/01/07 04:42:43;;;;;;;4.17;3.10;;;;;;;;;;5034836;28;20198;-89
2022/01/07 04:45:11;;;;;;;3.37;3.07;;;;;;;;;;5034766;28;20577;-90
2022/01/07 04:47:40;;;;;;;4.30;3.90;;;;;;;;;;5034750;28;20626;-89
2022/01/07 04:50:10;;;;;;;4.23;2.90;;;;;;;;;;5035271;28;20233;-89
2022/01/07 04:52:38;;;;;;;3.00;2.70;;;;;;;;;;5035351;28;20258;-89
2022/01/07 04:55:08;;;;;;;3.67;3.37;;;;;;;;;;5035312;28;20195;-89
2022/01/07 04:57:36;;;;;;;3.87;3.17;;;;;;;;;;5035842;28;20591;-89
2022/01/07 05:00:05;;;;;;;3.67;2.90;;;;;;;;;;5035422;28;20230;-89
2022/01/07 05:02:32;;;;;;;3.57;3.07;;;;;;;;;;5035325;28;20199;-90
2022/01/07 05:04:59;;;;;;;4.20;2.80;;;;;;;;;;5035366;28;20256;-90
2022/01/07 05:07:37;;;;;;;4.30;3.83;;;;;;;;;;5053499;28;20222;-88
2022/01/07 05:10:07;;;;;;;4.33;3.43;;;;;;;;;;5034683;28;20681;-89
2022/01/07 05:12:34;;;;;;;4.47;3.77;;;;;;;;;;5035260;28;20218;-90
2022/01/07 05:15:02;;;;;;;8.47;6.70;;;;;;;;;;5035442;28;20585;-89
2022/01/07 05:17:29;;;;;;;3.10;2.87;;;;;;;;;;5035672;28;20233;-90
2022/01/07 05:19:57;;;;;;;4.30;3.90;;;;;;;;;;5035482;28;20195;-90
2022/01/07 05:22:24;;;;;;;2.60;2.40;;;;;;;;;;5036371;28;20574;-90
2022/01/07 05:24:51;;;;;;;3.10;2.80;;;;;;;;;;5035845;28;20203;-90
2022/01/07 05:27:20;;;;;;;3.83;3.50;;;;;;;;;;5034716;28;20201;-89
2022/01/07 05:29:47;;;;;;;3.00;2.80;;;;;;;;;;5034267;28;20585;-89
2022/01/07 05:32:15;;;;;;;3.23;2.93;;;;;;;;;;5034020;28;20599;-90
2022/01/07 05:34:42;;;;;;;4.87;3.77;;;;;;;;;;5033988;28;20206;-90
2022/01/07 05:37:10;;;;;;;7.80;3.80;;;;;;;;;;5033646;28;20659;-90
2022/01/07 05:39:37;;;;;;;9.97;6.20;;;;;;;;;;5033723;28;20601;-90
2022/01/07 05:42:06;;;;;;;7.50;5.43;;;;;;;;;;5033599;28;20234;-89
2022/01/07 05:44:34;;;;;;;3.63;3.13;;;;;;;;;;5033777;28;20202;-90
2022/01/07 05:47:02;;;;;;;2.93;2.63;;;;;;;;;;5034057;28;20640;-91
2022/01/07 05:49:29;;;;;;;5.73;4.17;;;;;;;;;;5033706;28;20214;-90
2022/01/07 05:51:57;;;;;;;4.57;4.17;;;;;;;;;;5033525;28;20228;-89
2022/01/07 05:54:24;;;;;;;4.33;3.60;;;;;;;;;;5033916;28;20202;-90
2022/01/07 05:56:51;;;;;;;4.40;3.30;;;;;;;;;;5034393;28;20289;-90
2022/01/07 05:59:18;;;;;;;17.27;11.67;;;;;;;;;;5033614;28;20186;-90
2022/01/07 06:01:47;;;;;;;14.27;10.23;;;;;;;;;;5033573;28;20201;-90
2022/01/07 06:04:15;;;;;;;3.33;2.97;;;;;;;;;;5033056;28;20249;-90
2022/01/07 06:06:42;;;;;;;4.53;3.30;;;;;;;;;;5033373;28;20262;-90
2022/01/07 06:09:10;;;;;;;3.27;2.97;;;;;;;;;;5034470;28;20198;-90
2022/01/07 06:11:37;;;;;;;5.00;2.93;;;;;;;;;;5033427;28;20258;-90
2022/01/07 06:14:05;;;;;;;3.90;2.93;;;;;;;;;;5033244;28;20245;-90
2022/01/07 06:16:32;;;;;;;2.77;2.57;;;;;;;;;;5033192;28;20289;-89
2022/01/07 06:19:01;;;;;;;7.50;5.47;;;;;;;;;;5033525;28;20202;-90
2022/01/07 06:21:30;;;;;;;5.07;3.20;;;;;;;;;;5033698;28;20629;-90
2022/01/07 06:23:57;;;;;;;3.77;3.17;;;;;;;;;;5033894;28;20198;-90
2022/01/07 06:26:25;;;;;;;5.20;3.70;;;;;;;;;;5032896;28;20195;-90
2022/01/07 06:28:52;;;;;;;12.50;9.07;;;;;;;;;;5033086;28;20208;-90
2022/01/07 06:31:20;;;;;;;6.80;3.57;;;;;;;;;;5033337;28;20752;-90
2022/01/07 06:33:47;;;;;;;11.80;7.90;;;;;;;;;;5034335;28;20237;-91
2022/01/07 06:36:17;;;;;;;4.07;3.63;;;;;;;;;;5035758;28;20245;-90
2022/01/07 06:38:44;;;;;;;4.10;2.87;;;;;;;;;;5035585;28;20274;-91
2022/01/07 06:41:12;;;;;;;4.80;4.20;;;;;;;;;;5033261;28;20463;-90
2022/01/07 06:43:39;;;;;;;5.00;4.60;;;;;;;;;;5032905;28;20198;-90
2022/01/07 06:46:08;;;;;;;6.20;5.60;;;;;;;;;;5034313;28;20258;-90
2022/01/07 06:48:35;;;;;;;5.30;4.50;;;;;;;;;;5034947;28;20237;-90
2022/01/07 06:51:02;;;;;;;5.17;3.90;;;;;;;;;;5034550;28;20301;-90
2022/01/07 06:53:31;;;;;;;5.67;3.77;;;;;;;;;;5033525;28;20276;-90
2022/01/07 06:55:59;;;;;;;6.27;5.47;;;;;;;;;;5032661;28;20205;-90
2022/01/07 06:58:26;;;;;;;4.10;3.73;;;;;;;;;;5033219;28;20477;-90
2022/01/07 07:00:54;;;;;;;3.77;3.47;;;;;;;;;;5032795;28;20257;-89
2022/01/07 07:03:21;;;;;;;4.00;3.30;;;;;;;;;;5033534;28;20199;-89
2022/01/07 07:05:49;;;;;;;5.00;3.80;;;;;;;;;;5033679;28;20202;-89
2022/01/07 07:08:16;;;;;;;4.60;4.00;;;;;;;;;;5032947;28;20202;-90
2022/01/07 07:10:45;;;;;;;3.50;3.10;;;;;;;;;;5034436;28;20293;-91
2022/01/07 07:13:13;;;;;;;3.37;2.30;;;;;;;;;;5033208;28;20272;-88
2022/01/07 07:15:40;;;;;;;8.30;4.07;;;;;;;;;;5034554;28;20260;-90
2022/01/07 07:18:07;;;;;;;8.67;5.03;;;;;;;;;;5032973;28;20246;-90
2022/01/07 07:20:35;;;;;;;6.13;5.40;;;;;;;;;;5033362;28;20201;-89
2022/01/07 07:23:02;;;;;;;5.53;4.73;;;;;;;;;;5033086;28;20294;-89
2022/01/07 07:25:29;;;;;;;10.23;8.17;;;;;;;;;;5034503;28;20283;-89
2022/01/07 07:27:58;;;;;;;6.80;3.70;;;;;;;;;;5034458;28;20199;-88
2022/01/07 07:30:33;;;;;;;4.30;3.43;;;;;;;;;;5033018;28;20201;-88
2022/01/07 07:33:28;;;;;;;3.67;2.20;;;;;;;;;;5032509;28;20237;-89
2022/01/07 07:38:34;;;;;;;3.27;2.97;;;;;;;;;;5034883;28;20225;-90
2022/01/07 07:41:01;;;;;;;4.27;3.30;;;;;;;;;;5037182;28;20210;-88
2022/01/07 07:43:30;;;;;;;11.73;5.07;;;;;;;;;;5036418;28;20195;-90
2022/01/07 07:45:57;;;;;;;4.43;3.70;;;;;;;;;;5035871;28;20210;-89
2022/01/07 07:48:25;;;;;;;3.83;3.03;;;;;;;;;;5038964;28;20231;-90
2022/01/07 07:50:52;;;;;;;3.50;3.20;;;;;;;;;;5037016;28;20289;-89
2022/01/07 07:53:20;;;;;;;4.33;3.83;;;;;;;;;;5037596;28;20314;-89
2022/01/07 07:55:53;;;;;;;3.87;3.57;;;;;;;;;;5039393;28;20282;-89
2022/01/07 07:58:20;;;;;;;14.23;9.80;;;;;;;;;;5040527;28;20229;-89
2022/01/07 08:00:49;;;;;;;6.27;5.00;;;;;;;;;;5041914;28;20198;-90
2022/01/07 08:03:17;;;;;;;26.43;20.20;;;;;;;;;;5042287;28;20294;-88
2022/01/07 08:05:45;;;;;;;8.70;7.13;;;;;;;;;;5040413;28;20199;-88
2022/01/07 08:08:12;;;;;;;4.40;3.87;;;;;;;;;;5041971;28;20206;-89
2022/01/07 08:10:47;;;;;;;3.40;3.10;;;;;;;;;;5041973;28;20671;-89
2022/01/07 08:13:28;;;;;;;3.60;3.30;;;;;;;;;;5040727;28;20232;-88
2022/01/07 08:16:00;;;;;;;4.77;4.27;;;;;;;;;;5038014;28;20206;-90
2022/01/07 08:18:28;;;;;;;3.20;3.00;;;;;;;;;;5035878;28;20234;-90
2022/01/07 08:20:56;;;;;;;5.17;3.10;;;;;;;;;;5035718;28;20201;-90
2022/01/07 08:23:24;;;;;;;3.80;3.50;;;;;;;;;;5035547;28;20194;-90
2022/01/07 08:25:51;;;;;;;4.43;3.67;;;;;;;;;;5040458;28;20223;-89
2022/01/07 08:28:19;;;;;;;5.47;4.03;;;;;;;;;;5039691;28;20195;-89
2022/01/07 08:36:17;;;;;;;3.10;2.90;;;;;;;;;;5035599;28;20182;-90
2022/01/07 08:38:45;;;;;;;6.50;3.37;;;;;;;;;;5035007;28;20312;-90
2022/01/07 08:41:13;;;;;;;3.40;3.10;;;;;;;;;;5035406;28;20789;-90
2022/01/07 08:43:40;;;;;;;5.10;2.90;;;;;;;;;;5035402;28;20226;-90
2022/01/07 08:46:08;;;;;;;4.23;3.23;;;;;;;;;;5036502;28;20289;-89
2022/01/07 08:48:38;;;;;;;4.23;3.50;;;;;;;;;;5037189;28;20290;-89
2022/01/07 08:51:06;;;;;;;4.13;3.13;;;;;;;;;;5035233;28;20205;-90
2022/01/07 08:53:34;;;;;;;3.13;2.80;;;;;;;;;;5035243;28;20226;-90
2022/01/07 08:56:01;;;;;;;3.07;2.53;;;;;;;;;;5038441;28;20589;-90
2022/01/07 08:58:28;;;;;;;3.17;2.90;;;;;;;;;;5036393;28;20663;-90
2022/01/07 09:00:56;;;;;;;3.87;2.90;;;;;;;;;;5037969;28;20228;-88
2022/01/07 09:03:24;;;;;;;5.87;3.87;;;;;;;;;;5036170;28;20195;-88
2022/01/07 09:05:53;;;;;;;4.33;2.80;;;;;;;;;;5035919;28;20198;-89
2022/01/07 09:08:21;;;;;;;2.90;2.60;;;;;;;;;;5034742;28;20198;-89
2022/01/07 09:10:49;;;;;;;4.03;2.83;;;;;;;;;;5035657;28;20198;-88
2022/01/07 09:13:18;;;;;;;2.57;2.37;;;;;;;;;;5034446;28;20228;-89
2022/01/07 09:15:46;;;;;;;3.50;2.90;;;;;;;;;;5034669;28;20198;-89
2022/01/07 09:18:14;;;;;;;3.80;3.40;;;;;;;;;;5034545;28;20317;-89
2022/01/07 09:20:43;;;;;;;3.40;3.03;;;;;;;;;;5034539;28;20273;-89
2022/01/07 09:23:12;;;;;;;3.10;2.90;;;;;;;;;;5034066;28;20285;-89
2022/01/07 09:25:39;;;;;;;9.07;4.37;;;;;;;;;;5034140;28;20195;-89
2022/01/07 09:28:08;;;;;;;4.07;3.00;;;;;;;;;;5033924;28;20249;-88
2022/01/07 09:30:37;;;;;;;18.03;10.17;;;;;;;;;;5033712;28;20199;-89
2022/01/07 09:33:05;;;;;;;11.27;7.53;;;;;;;;;;5033626;28;20314;-89
2022/01/07 09:35:32;;;;;;;4.50;4.07;;;;;;;;;;5034227;28;20558;-89
2022/01/07 09:37:59;;;;;;;7.97;4.53;;;;;;;;;;5033592;28;20207;-89
2022/01/07 09:40:28;;;;;;;5.00;3.60;;;;;;;;;;5033922;28;20301;-89
2022/01/07 09:42:57;;;;;;;6.10;4.23;;;;;;;;;;5034011;28;20293;-89
2022/01/07 09:45:26;;;;;;;3.70;3.20;;;;;;;;;;5033553;28;20197;-88
2022/01/07 09:47:55;;;;;;;5.90;4.20;;;;;;;;;;5033423;28;20198;-89
2022/01/07 09:50:23;;;;;;;4.43;4.00;;;;;;;;;;5033378;28;20667;-89
2022/01/07 09:52:51;;;;;;;4.37;3.97;;;;;;;;;;5033273;28;20218;-89
2022/01/07 09:55:19;;;;;;;5.70;4.20;;;;;;;;;;5033669;28;20190;-89
2022/01/07 09:57:48;;;;;;;5.43;3.97;;;;;;;;;;5033088;28;20202;-90
2022/01/07 10:00:15;;;;;;;7.47;4.00;;;;;;;;;;5033262;28;20608;-88
2022/01/07 10:03:01;;;;;;;9.53;5.40;;;;;;;;;;5032541;28;20256;-90
2022/01/07 10:05:29;;;;;;;4.63;4.23;;;;;;;;;;5033405;28;20245;-89
2022/01/07 10:07:57;;;;;;;41.33;23.30;;;;;;;;;;5033683;28;20256;-90
2022/01/07 10:10:24;;;;;;;10.37;6.83;;;;;;;;;;5033373;28;20202;-89
2022/01/07 10:12:59;;;;;;;9.90;7.20;;;;;;;;;;5033069;28;20305;-89
2022/01/07 10:15:28;;;;;;;7.67;6.87;;;;;;;;;;5033325;28;20604;-90
2022/01/07 10:17:59;;;;;;;8.50;6.73;;;;;;;;;;5033282;28;20226;-90
2022/01/07 10:20:29;;;;;;;6.10;4.93;;;;;;;;;;5033470;28;20183;-90
2022/01/07 10:22:57;;;;;;;5.70;4.47;;;;;;;;;;5033754;28;20198;-90
2022/01/07 10:25:27;;;;;;;5.00;4.60;;;;;;;;;;5033302;28;20274;-90
2022/01/07 10:28:00;;;;;;;6.97;6.17;;;;;;;;;;5033826;28;20252;-90
2022/01/07 10:30:28;;;;;;;7.70;6.40;;;;;;;;;;5032973;28;20265;-90
2022/01/07 10:32:56;;;;;;;17.07;9.37;;;;;;;;;;5033389;28;20332;-89
2022/01/07 10:35:25;;;;;;;12.70;8.40;;;;;;;;;;5033165;28;20271;-90
2022/01/07 10:37:55;;;;;;;5.50;4.93;;;;;;;;;;5033394;28;20585;-90
2022/01/07 10:40:31;;;;;;;8.67;5.83;;;;;;;;;;5034936;28;20289;-90
2022/01/07 10:43:18;;;;;;;6.33;4.93;;;;;;;;;;5035070;28;20186;-90
2022/01/07 10:45:47;;;;;;;4.87;4.17;;;;;;;;;;5035873;28;20262;-90
2022/01/07 10:48:16;;;;;;;5.23;4.60;;;;;;;;;;5033960;28;20222;-89
2022/01/07 10:50:44;;;;;;;5.13;3.73;;;;;;;;;;5032612;28;20234;-89
2022/01/07 10:53:23;;;;;;;6.37;5.10;;;;;;;;;;5033195;28;20232;-90
2022/01/07 10:56:05;;;;;;;6.03;5.23;;;;;;;;;;5033615;28;20186;-90
2022/01/07 10:58:50;;;;;;;6.17;5.10;;;;;;;;;;5034604;28;20186;-89
2022/01/07 11:01:27;;;;;;;5.10;4.50;;;;;;;;;;5035285;28;20262;-89
2022/01/07 11:03:57;;;;;;;7.13;6.07;;;;;;;;;;5034937;28;20189;-88
2022/01/07 11:06:25;;;;;;;9.43;7.77;;;;;;;;;;5033573;28;20333;-90
2022/01/07 11:08:54;;;;;;;5.20;4.70;;;;;;;;;;5033025;28;20201;-90
2022/01/07 11:11:23;;;;;;;6.23;5.63;;;;;;;;;;5035809;28;20289;-90
2022/01/07 11:13:53;;;;;;;9.73;6.37;;;;;;;;;;5044103;28;20288;-90
2022/01/07 11:16:20;;;;;;;4.77;4.07;;;;;;;;;;5039594;28;20191;-90
2022/01/07 11:18:49;;;;;;;6.67;4.60;;;;;;;;;;5039937;28;20242;-90
2022/01/07 11:21:18;;;;;;;65.20;49.63;;;;;;;;;;5040183;28;20206;-89
2022/01/07 11:23:46;;;;;;;47.73;40.67;;;;;;;;;;5040260;28;20237;-90
2022/01/07 11:26:15;;;;;;;12.07;10.27;;;;;;;;;;5036672;28;20276;-89
2022/01/07 11:28:58;;;;;;;10.47;6.83;;;;;;;;;;5038751;28;20195;-90
2022/01/07 11:31:26;;;;;;;6.63;5.77;;;;;;;;;;5040449;28;20191;-90
2022/01/07 11:34:26;;;;;;;7.60;6.80;;;;;;;;;;5042088;28;20256;-90
2022/01/07 11:36:54;;;;;;;10.00;7.60;;;;;;;;;;5040221;28;20589;-90
2022/01/07 11:39:23;;;;;;;12.73;8.73;;;;;;;;;;5038499;28;20619;-90
2022/01/07 11:41:55;;;;;;;12.80;8.33;;;;;;;;;;5039484;28;20208;-89
2022/01/07 11:44:26;;;;;;;14.70;10.83;;;;;;;;;;5044057;28;20611;-90
2022/01/07 11:47:23;;;;;;;13.37;10.67;;;;;;;;;;5042690;28;20194;-88
2022/01/07 11:50:02;;;;;;;9.03;7.90;;;;;;;;;;5040866;28;20194;-89
2022/01/07 11:52:34;;;;;;;7.20;6.07;;;;;;;;;;5040736;28;20207;-88
2022/01/07 11:55:31;;;;;;;10.37;7.00;;;;;;;;;;5040074;28;20249;-88
2022/01/07 11:58:03;;;;;;;12.23;8.10;;;;;;;;;;5036842;28;20256;-89
2022/01/07 12:00:54;;;;;;;12.10;7.67;;;;;;;;;;5039757;28;20194;-89
2022/01/07 12:03:32;;;;;;;26.60;17.27;;;;;;;;;;5037281;28;20225;-90
2022/01/07 12:06:00;;;;;;;39.90;30.77;;;;;;;;;;5039724;28;20205;-90
2022/01/07 12:09:11;;;;;;;44.43;34.83;;;;;;;;;;5039911;28;20229;-89
2022/01/07 12:11:41;;;;;;;16.70;13.50;;;;;;;;;;5041926;28;20698;-89
2022/01/07 12:14:12;;;;;;;38.53;27.83;;;;;;;;;;5041353;28;20226;-91
2022/01/07 12:16:43;;;;;;;25.43;22.83;;;;;;;;;;5037925;28;20206;-90
2022/01/07 12:19:57;;;;;;;19.80;13.33;;;;;;;;;;5038363;28;20643;-90
2022/01/07 12:22:25;;;;;;;30.60;24.50;;;;;;;;;;5038611;28;20198;-90
2022/01/07 12:25:00;;;;;;;34.27;25.43;;;;;;;;;;5035930;28;20233;-89
2022/01/07 12:27:28;;;;;;;9.93;7.87;;;;;;;;;;5040767;28;20206;-90
2022/01/07 12:30:10;;;;;;;15.47;13.80;;;;;;;;;;5039181;28;20213;-90
2022/01/07 12:32:40;;;;;;;13.00;10.73;;;;;;;;;;5038356;28;20189;-89
2022/01/07 12:35:11;;;;;;;25.83;19.60;;;;;;;;;;5038018;28;20710;-88
2022/01/07 12:37:39;;;;;;;13.87;11.00;;;;;;;;;;5038313;28;20289;-90
2022/01/07 12:40:09;;;;;;;12.50;9.23;;;;;;;;;;5035665;28;20252;-89
2022/01/07 12:42:44;;;;;;;28.07;22.20;;;;;;;;;;5038588;28;20203;-88
2022/01/07 12:45:17;;;;;;;16.60;13.17;;;;;;;;;;5043033;28;20666;-89
2022/01/07 12:47:46;;;;;;;18.10;13.77;;;;;;;;;;5040739;28;20210;-89
2022/01/07 12:50:14;;;;;;;24.30;16.00;;;;;;;;;;5041488;28;20222;-89
2022/01/07 12:52:43;;;;;;;20.80;14.90;;;;;;;;;;5040874;28;20226;-89
2022/01/07 12:55:15;;;;;;;28.77;19.83;;;;;;;;;;5037421;28;20234;-90
2022/01/07 12:57:46;;;;;;;41.50;21.73;;;;;;;;;;5038482;28;20198;-90
2022/01/07 13:00:17;;;;;;;44.40;29.40;;;;;;;;;;5042335;28;20203;-89
2022/01/07 13:02:47;;;;;;;42.60;23.93;;;;;;;;;;5036812;28;20206;-89
2022/01/07 13:05:17;;;;;;;25.97;15.50;;;;;;;;;;5037787;28;20257;-89
2022/01/07 13:07:46;;;;;;;27.87;15.80;;;;;;;;;;5034971;28;20277;-89
2022/01/07 13:10:18;;;;;;;10.17;8.30;;;;;;;;;;5035380;28;20637;-89
2022/01/07 13:12:54;;;;;;;47.50;30.30;;;;;;;;;;5034601;28;20277;-89
2022/01/07 13:15:39;;;;;;;40.27;22.30;;;;;;;;;;5035497;28;20225;-89
2022/01/07 13:18:28;;;;;;;66.40;33.13;;;;;;;;;;5034214;28;20313;-89
2022/01/07 13:20:58;;;;;;;42.57;26.10;;;;;;;;;;5042407;28;20183;-89
2022/01/07 13:23:27;;;;;;;128.47;67.77;;;;;;;;;;5044096;28;20190;-88
2022/01/07 13:25:56;;;;;;;70.17;40.93;;;;;;;;;;5037380;28;20679;-88
2022/01/07 13:28:37;;;;;;;38.03;20.03;;;;;;;;;;5037404;28;20198;-90
2022/01/07 13:31:05;;;;;;;33.07;19.10;;;;;;;;;;5038474;28;20627;-89
2022/01/07 13:33:34;;;;;;;10.07;8.07;;;;;;;;;;5034762;28;20242;-89
2022/01/07 13:36:04;;;;;;;12.67;8.87;;;;;;;;;;5034030;28;20281;-89
2022/01/07 13:38:32;;;;;;;16.30;13.40;;;;;;;;;;5035765;28;20229;-89
2022/01/07 13:41:07;;;;;;;13.10;11.70;;;;;;;;;;5034966;28;20233;-89
2022/01/07 13:43:36;;;;;;;12.10;10.37;;;;;;;;;;5034968;28;20206;-89
2022/01/07 13:46:13;;;;;;;11.90;10.67;;;;;;;;;;5034491;28;20671;-90
2022/01/07 13:49:05;;;;;;;20.20;12.97;;;;;;;;;;5035103;28;20206;-89
2022/01/07 13:51:33;;;;;;;27.13;17.30;;;;;;;;;;5033149;28;20285;-89
2022/01/07 13:54:09;;;;;;;27.57;16.90;;;;;;;;;;5038101;28;20218;-89
2022/01/07 13:56:37;;;;;;;17.30;12.37;;;;;;;;;;5037059;28;20210;-89
2022/01/07 13:59:10;;;;;;;42.30;22.03;;;;;;;;;;5036191;28;20202;-89
2022/01/07 14:01:54;;;;;;;45.90;27.27;;;;;;;;;;5040034;28;20221;-90
2022/01/07 14:04:40;;;;;;;58.77;52.93;;;;;;;;;;5037409;28;20213;-89
2022/01/07 14:07:32;;;;;;;23.50;19.30;;;;;;;;;;5037856;28;20191;-88
2022/01/07 14:10:24;;;;;;;31.90;20.20;;;;;;;;;;5049336;28;20286;-89
2022/01/07 14:12:54;;;;;;;37.57;27.60;;;;;;;;;;5028777;28;20202;-89
2022/01/07 14:15:23;;;;;;;31.33;23.47;;;;;;;;;;5034596;28;20222;-89
2022/01/07 14:17:51;;;;;;;25.57;20.00;;;;;;;;;;5033927;28;20637;-89
2022/01/07 14:20:22;;;;;;;17.47;14.03;;;;;;;;;;5039046;28;20273;-89
2022/01/07 14:22:50;;;;;;;53.93;37.17;;;;;;;;;;5035544;28;20266;-89
2022/01/07 14:25:20;;;;;;;55.93;38.93;;;;;;;;;;5036292;28;20203;-88
2022/01/07 14:27:48;;;;;;;130.07;79.07;;;;;;;;;;5034145;28;20195;-89
2022/01/07 14:30:16;;;;;;;66.77;44.27;;;;;;;;;;5034562;28;20201;-89
2022/01/07 14:32:45;;;;;;;42.13;27.23;;;;;;;;;;5033685;28;20199;-89
2022/01/07 14:35:13;;;;;;;62.97;41.40;;;;;;;;;;5037584;28;20280;-89
2022/01/07 14:37:42;;;;;;;108.27;75.13;;;;;;;;;;5034636;28;20202;-90
2022/01/07 14:40:10;;;;;;;58.40;42.10;;;;;;;;;;5036005;28;20201;-90
2022/01/07 14:42:38;;;;;;;140.43;83.07;;;;;;;;;;5035917;28;20281;-90
2022/01/07 14:45:06;;;;;;;21.63;15.37;;;;;;;;;;5035963;28;20203;-89
2022/01/07 14:47:34;;;;;;;25.87;18.67;;;;;;;;;;5041661;28;20221;-89
2022/01/07 14:50:02;;;;;;;41.57;26.80;;;;;;;;;;5043037;28;20194;-90
2022/01/07 14:52:30;;;;;;;21.33;15.47;;;;;;;;;;5043246;28;20207;-89
2022/01/07 14:54:59;;;;;;;14.73;11.47;;;;;;;;;;5043748;28;20285;-90
2022/01/07 14:57:26;;;;;;;26.30;16.80;;;;;;;;;;5042568;28;20194;-89
2022/01/07 14:59:54;;;;;;;41.83;27.77;;;;;;;;;;5040950;28;20206;-90